sensor_id;sensor_type;location;lat;lon;timestamp;P1;durP1;ratioP1;P2;durP2;ratioP2
19107;SDS011;9686;48.832;9.126;2023-06-04T00:02:20;6.57;;;5.40;;
19107;SDS011;9686;48.832;9.126;2023-06-04T00:04:46;6.30;;;5.30;;
19107;SDS011;9686;48.832;9.126;2023-06-04T00:07:11;8.07;;;5.50;;
19107;SDS011;9686;48.832;9.126;2023-06-04T00:09:36;6.40;;;4.87;;
19107;SDS011;9686;48.832;9.126;2023-06-04T00:12:02;6.30;;;5.47;;
19107;SDS011;9686;48.832;9.126;2023-06-04T00:14:27;9.67;;;6.30;;
19107;SDS011;9686;48.832;9.126;2023-06-04T00:16:53;6.57;;;5.30;;
19107;SDS011;9686;48.832;9.126;2023-06-04T00:19:18;8.87;;;5.73;;
19107;SDS011;9686;48.832;9.126;2023-06-04T00:21:44;6.83;;;5.40;;
19107;SDS011;9686;48.832;9.126;2023-06-04T00:24:10;7.97;;;5.73;;
19107;SDS011;9686;48.832;9.126;2023-06-04T00:26:37;7.87;;;6.00;;
19107;SDS011;9686;48.832;9.126;2023-06-04T00:29:02;7.57;;;5.07;;
19107;SDS011;9686;48.832;9.126;2023-06-04T00:31:28;6.30;;;5.60;;
19107;SDS011;9686;48.832;9.126;2023-06-04T00:33:53;6.70;;;6.00;;
19107;SDS011;9686;48.832;9.126;2023-06-04T00:36:18;8.33;;;6.00;;
19107;SDS011;9686;48.832;9.126;2023-06-04T00:38:44;7.50;;;5.47;;
19107;SDS011;9686;48.832;9.126;2023-06-04T00:41:09;6.93;;;5.97;;
19107;SDS011;9686;48.832;9.126;2023-06-04T00:43:35;8.27;;;6.10;;
19107;SDS011;9686;48.832;9.126;2023-06-04T00:46:01;8.20;;;5.67;;
19107;SDS011;9686;48.832;9.126;2023-06-04T00:48:28;6.77;;;5.73;;
19107;SDS011;9686;48.832;9.126;2023-06-04T00:50:55;7.67;;;5.97;;
19107;SDS011;9686;48.832;9.126;2023-06-04T00:53:21;6.70;;;5.80;;
19107;SDS011;9686;48.832;9.126;2023-06-04T00:55:48;6.60;;;5.73;;
19107;SDS011;9686;48.832;9.126;2023-06-04T00:58:14;6.17;;;5.17;;
19107;SDS011;9686;48.832;9.126;2023-06-04T01:00:40;7.50;;;5.30;;
19107;SDS011;9686;48.832;9.126;2023-06-04T01:03:08;8.57;;;5.10;;
19107;SDS011;9686;48.832;9.126;2023-06-04T01:05:43;7.23;;;5.73;;
19107;SDS011;9686;48.832;9.126;2023-06-04T01:08:16;6.53;;;5.77;;
19107;SDS011;9686;48.832;9.126;2023-06-04T01:10:55;6.70;;;5.40;;
19107;SDS011;9686;48.832;9.126;2023-06-04T01:13:21;6.97;;;5.57;;
19107;SDS011;9686;48.832;9.126;2023-06-04T01:15:47;8.43;;;5.43;;
19107;SDS011;9686;48.832;9.126;2023-06-04T01:18:14;10.83;;;6.07;;
19107;SDS011;9686;48.832;9.126;2023-06-04T01:20:52;7.20;;;5.47;;
19107;SDS011;9686;48.832;9.126;2023-06-04T01:23:34;7.13;;;5.90;;
19107;SDS011;9686;48.832;9.126;2023-06-04T01:26:09;8.90;;;6.30;;
19107;SDS011;9686;48.832;9.126;2023-06-04T01:28:35;5.80;;;5.03;;
19107;SDS011;9686;48.832;9.126;2023-06-04T01:31:01;7.23;;;6.43;;
19107;SDS011;9686;48.832;9.126;2023-06-04T01:33:28;10.60;;;5.70;;
19107;SDS011;9686;48.832;9.126;2023-06-04T01:35:53;6.07;;;5.47;;
19107;SDS011;9686;48.832;9.126;2023-06-04T01:38:19;6.10;;;5.20;;
19107;SDS011;9686;48.832;9.126;2023-06-04T01:40:45;6.40;;;5.23;;
19107;SDS011;9686;48.832;9.126;2023-06-04T01:43:12;8.30;;;5.57;;
19107;SDS011;9686;48.832;9.126;2023-06-04T01:45:37;5.40;;;4.70;;
19107;SDS011;9686;48.832;9.126;2023-06-04T01:48:03;6.10;;;5.50;;
19107;SDS011;9686;48.832;9.126;2023-06-04T01:50:29;7.17;;;5.23;;
19107;SDS011;9686;48.832;9.126;2023-06-04T01:52:55;5.73;;;5.03;;
19107;SDS011;9686;48.832;9.126;2023-06-04T01:55:21;7.60;;;4.63;;
19107;SDS011;9686;48.832;9.126;2023-06-04T01:57:46;6.57;;;5.13;;
19107;SDS011;9686;48.832;9.126;2023-06-04T02:00:15;5.93;;;4.80;;
19107;SDS011;9686;48.832;9.126;2023-06-04T02:02:41;9.00;;;5.77;;
19107;SDS011;9686;48.832;9.126;2023-06-04T02:05:08;5.93;;;4.83;;
19107;SDS011;9686;48.832;9.126;2023-06-04T02:07:35;8.00;;;5.23;;
19107;SDS011;9686;48.832;9.126;2023-06-04T02:10:07;8.10;;;5.37;;
19107;SDS011;9686;48.832;9.126;2023-06-04T02:12:35;5.33;;;4.60;;
19107;SDS011;9686;48.832;9.126;2023-06-04T02:15:02;7.40;;;5.70;;
19107;SDS011;9686;48.832;9.126;2023-06-04T02:17:28;9.50;;;5.10;;
19107;SDS011;9686;48.832;9.126;2023-06-04T02:19:57;5.83;;;4.90;;
19107;SDS011;9686;48.832;9.126;2023-06-04T02:22:24;6.13;;;4.97;;
19107;SDS011;9686;48.832;9.126;2023-06-04T02:24:50;5.73;;;4.83;;
19107;SDS011;9686;48.832;9.126;2023-06-04T02:27:16;7.90;;;5.50;;
19107;SDS011;9686;48.832;9.126;2023-06-04T02:29:41;7.17;;;5.40;;
19107;SDS011;9686;48.832;9.126;2023-06-04T02:32:07;8.10;;;5.67;;
19107;SDS011;9686;48.832;9.126;2023-06-04T02:34:33;7.73;;;5.37;;
19107;SDS011;9686;48.832;9.126;2023-06-04T02:36:59;8.17;;;5.60;;
19107;SDS011;9686;48.832;9.126;2023-06-04T02:39:25;6.73;;;5.60;;
19107;SDS011;9686;48.832;9.126;2023-06-04T02:41:50;6.90;;;5.20;;
19107;SDS011;9686;48.832;9.126;2023-06-04T02:44:15;8.83;;;5.53;;
19107;SDS011;9686;48.832;9.126;2023-06-04T02:46:41;7.60;;;5.30;;
19107;SDS011;9686;48.832;9.126;2023-06-04T02:49:06;6.97;;;5.27;;
19107;SDS011;9686;48.832;9.126;2023-06-04T02:51:31;6.27;;;4.80;;
19107;SDS011;9686;48.832;9.126;2023-06-04T02:53:57;6.77;;;4.57;;
19107;SDS011;9686;48.832;9.126;2023-06-04T02:56:23;6.83;;;5.13;;
19107;SDS011;9686;48.832;9.126;2023-06-04T02:58:52;6.10;;;4.90;;
19107;SDS011;9686;48.832;9.126;2023-06-04T03:01:20;5.50;;;4.97;;
19107;SDS011;9686;48.832;9.126;2023-06-04T03:03:46;7.90;;;5.43;;
19107;SDS011;9686;48.832;9.126;2023-06-04T03:06:11;4.97;;;4.43;;
19107;SDS011;9686;48.832;9.126;2023-06-04T03:08:39;8.30;;;5.00;;
19107;SDS011;9686;48.832;9.126;2023-06-04T03:11:04;6.83;;;5.30;;
19107;SDS011;9686;48.832;9.126;2023-06-04T03:13:30;6.43;;;5.00;;
19107;SDS011;9686;48.832;9.126;2023-06-04T03:15:55;6.07;;;5.00;;
19107;SDS011;9686;48.832;9.126;2023-06-04T03:18:21;5.77;;;5.10;;
19107;SDS011;9686;48.832;9.126;2023-06-04T03:20:47;6.47;;;5.67;;
19107;SDS011;9686;48.832;9.126;2023-06-04T03:23:13;5.43;;;4.80;;
19107;SDS011;9686;48.832;9.126;2023-06-04T03:25:38;6.13;;;5.10;;
19107;SDS011;9686;48.832;9.126;2023-06-04T03:28:04;7.03;;;5.27;;
19107;SDS011;9686;48.832;9.126;2023-06-04T03:30:29;6.80;;;5.63;;
19107;SDS011;9686;48.832;9.126;2023-06-04T03:32:54;7.27;;;5.00;;
19107;SDS011;9686;48.832;9.126;2023-06-04T03:35:19;6.13;;;4.60;;
19107;SDS011;9686;48.832;9.126;2023-06-04T03:37:45;5.67;;;5.07;;
19107;SDS011;9686;48.832;9.126;2023-06-04T03:40:11;6.27;;;5.47;;
19107;SDS011;9686;48.832;9.126;2023-06-04T03:42:36;6.67;;;5.47;;
19107;SDS011;9686;48.832;9.126;2023-06-04T03:45:02;6.00;;;4.97;;
19107;SDS011;9686;48.832;9.126;2023-06-04T03:47:27;5.57;;;4.63;;
19107;SDS011;9686;48.832;9.126;2023-06-04T03:49:52;5.83;;;4.63;;
19107;SDS011;9686;48.832;9.126;2023-06-04T03:52:18;6.80;;;4.43;;
19107;SDS011;9686;48.832;9.126;2023-06-04T03:54:43;7.40;;;5.37;;
19107;SDS011;9686;48.832;9.126;2023-06-04T03:57:08;5.50;;;4.53;;
19107;SDS011;9686;48.832;9.126;2023-06-04T03:59:33;5.27;;;4.57;;
19107;SDS011;9686;48.832;9.126;2023-06-04T04:01:59;6.70;;;4.13;;
19107;SDS011;9686;48.832;9.126;2023-06-04T04:04:25;5.60;;;4.07;;
19107;SDS011;9686;48.832;9.126;2023-06-04T04:06:50;4.97;;;4.17;;
19107;SDS011;9686;48.832;9.126;2023-06-04T04:09:16;5.73;;;4.80;;
19107;SDS011;9686;48.832;9.126;2023-06-04T04:11:41;5.57;;;4.17;;
19107;SDS011;9686;48.832;9.126;2023-06-04T04:14:06;5.10;;;3.90;;
19107;SDS011;9686;48.832;9.126;2023-06-04T04:16:32;4.70;;;4.10;;
19107;SDS011;9686;48.832;9.126;2023-06-04T04:18:57;4.43;;;3.87;;
19107;SDS011;9686;48.832;9.126;2023-06-04T04:21:22;4.63;;;3.97;;
19107;SDS011;9686;48.832;9.126;2023-06-04T04:23:48;5.07;;;4.40;;
19107;SDS011;9686;48.832;9.126;2023-06-04T04:26:14;4.10;;;3.70;;
19107;SDS011;9686;48.832;9.126;2023-06-04T04:28:41;5.17;;;3.90;;
19107;SDS011;9686;48.832;9.126;2023-06-04T04:31:08;4.77;;;3.87;;
19107;SDS011;9686;48.832;9.126;2023-06-04T04:33:35;5.33;;;3.83;;
19107;SDS011;9686;48.832;9.126;2023-06-04T04:36:04;5.50;;;3.43;;
19107;SDS011;9686;48.832;9.126;2023-06-04T04:38:33;5.00;;;3.50;;
19107;SDS011;9686;48.832;9.126;2023-06-04T04:40:59;4.57;;;3.40;;
19107;SDS011;9686;48.832;9.126;2023-06-04T04:43:32;4.00;;;3.57;;
19107;SDS011;9686;48.832;9.126;2023-06-04T04:45:58;5.60;;;3.53;;
19107;SDS011;9686;48.832;9.126;2023-06-04T04:48:23;4.73;;;3.40;;
19107;SDS011;9686;48.832;9.126;2023-06-04T04:50:49;4.33;;;3.17;;
19107;SDS011;9686;48.832;9.126;2023-06-04T04:53:15;3.97;;;3.57;;
19107;SDS011;9686;48.832;9.126;2023-06-04T04:55:40;4.80;;;3.10;;
19107;SDS011;9686;48.832;9.126;2023-06-04T04:58:05;3.67;;;3.20;;
19107;SDS011;9686;48.832;9.126;2023-06-04T05:00:31;3.57;;;3.27;;
19107;SDS011;9686;48.832;9.126;2023-06-04T05:02:56;3.40;;;2.73;;
19107;SDS011;9686;48.832;9.126;2023-06-04T05:05:21;2.83;;;2.60;;
19107;SDS011;9686;48.832;9.126;2023-06-04T05:07:47;3.70;;;2.67;;
19107;SDS011;9686;48.832;9.126;2023-06-04T05:10:12;4.17;;;2.93;;
19107;SDS011;9686;48.832;9.126;2023-06-04T05:12:38;3.90;;;3.03;;
19107;SDS011;9686;48.832;9.126;2023-06-04T05:15:03;3.57;;;2.83;;
19107;SDS011;9686;48.832;9.126;2023-06-04T05:17:28;3.23;;;2.93;;
19107;SDS011;9686;48.832;9.126;2023-06-04T05:19:56;4.80;;;2.70;;
19107;SDS011;9686;48.832;9.126;2023-06-04T05:22:28;4.20;;;2.63;;
19107;SDS011;9686;48.832;9.126;2023-06-04T05:24:53;3.63;;;2.73;;
19107;SDS011;9686;48.832;9.126;2023-06-04T05:27:19;4.03;;;2.80;;
19107;SDS011;9686;48.832;9.126;2023-06-04T05:29:45;3.33;;;3.10;;
19107;SDS011;9686;48.832;9.126;2023-06-04T05:32:10;4.73;;;2.73;;
19107;SDS011;9686;48.832;9.126;2023-06-04T05:34:36;3.57;;;2.83;;
19107;SDS011;9686;48.832;9.126;2023-06-04T05:37:01;3.20;;;2.50;;
19107;SDS011;9686;48.832;9.126;2023-06-04T05:39:29;4.60;;;3.30;;
19107;SDS011;9686;48.832;9.126;2023-06-04T05:41:54;3.20;;;2.57;;
19107;SDS011;9686;48.832;9.126;2023-06-04T05:44:19;3.57;;;2.60;;
19107;SDS011;9686;48.832;9.126;2023-06-04T05:46:44;4.03;;;2.90;;
19107;SDS011;9686;48.832;9.126;2023-06-04T05:49:10;2.77;;;2.50;;
19107;SDS011;9686;48.832;9.126;2023-06-04T05:51:35;3.03;;;2.53;;
19107;SDS011;9686;48.832;9.126;2023-06-04T05:54:00;2.97;;;2.50;;
19107;SDS011;9686;48.832;9.126;2023-06-04T05:56:26;3.93;;;2.67;;
19107;SDS011;9686;48.832;9.126;2023-06-04T05:58:52;4.20;;;2.80;;
19107;SDS011;9686;48.832;9.126;2023-06-04T06:01:17;5.07;;;2.80;;
19107;SDS011;9686;48.832;9.126;2023-06-04T06:03:43;3.73;;;2.50;;
19107;SDS011;9686;48.832;9.126;2023-06-04T06:06:08;3.93;;;2.40;;
19107;SDS011;9686;48.832;9.126;2023-06-04T06:08:35;2.90;;;2.27;;
19107;SDS011;9686;48.832;9.126;2023-06-04T06:11:00;2.23;;;1.80;;
19107;SDS011;9686;48.832;9.126;2023-06-04T06:13:27;2.10;;;1.83;;
19107;SDS011;9686;48.832;9.126;2023-06-04T06:15:54;3.33;;;2.30;;
19107;SDS011;9686;48.832;9.126;2023-06-04T06:18:20;5.50;;;1.93;;
19107;SDS011;9686;48.832;9.126;2023-06-04T06:20:46;2.27;;;2.07;;
19107;SDS011;9686;48.832;9.126;2023-06-04T06:23:11;1.80;;;1.70;;
19107;SDS011;9686;48.832;9.126;2023-06-04T06:25:36;3.33;;;2.00;;
19107;SDS011;9686;48.832;9.126;2023-06-04T06:28:05;2.27;;;1.60;;
19107;SDS011;9686;48.832;9.126;2023-06-04T06:30:30;2.53;;;1.70;;
19107;SDS011;9686;48.832;9.126;2023-06-04T06:32:56;2.47;;;1.50;;
19107;SDS011;9686;48.832;9.126;2023-06-04T06:35:21;2.13;;;1.80;;
19107;SDS011;9686;48.832;9.126;2023-06-04T06:37:46;1.77;;;1.60;;
19107;SDS011;9686;48.832;9.126;2023-06-04T06:40:11;2.70;;;1.60;;
19107;SDS011;9686;48.832;9.126;2023-06-04T06:42:37;2.60;;;1.20;;
19107;SDS011;9686;48.832;9.126;2023-06-04T06:45:02;2.00;;;1.80;;
19107;SDS011;9686;48.832;9.126;2023-06-04T06:47:28;2.67;;;1.67;;
19107;SDS011;9686;48.832;9.126;2023-06-04T06:49:53;2.63;;;1.53;;
19107;SDS011;9686;48.832;9.126;2023-06-04T06:52:19;1.40;;;1.30;;
19107;SDS011;9686;48.832;9.126;2023-06-04T06:54:45;1.87;;;1.50;;
19107;SDS011;9686;48.832;9.126;2023-06-04T06:57:11;2.10;;;1.70;;
19107;SDS011;9686;48.832;9.126;2023-06-04T06:59:36;1.50;;;1.30;;
19107;SDS011;9686;48.832;9.126;2023-06-04T07:02:02;5.43;;;1.50;;
19107;SDS011;9686;48.832;9.126;2023-06-04T07:04:28;1.90;;;1.50;;
19107;SDS011;9686;48.832;9.126;2023-06-04T07:06:53;2.30;;;1.80;;
19107;SDS011;9686;48.832;9.126;2023-06-04T07:09:18;1.83;;;1.50;;
19107;SDS011;9686;48.832;9.126;2023-06-04T07:11:43;2.23;;;1.70;;
19107;SDS011;9686;48.832;9.126;2023-06-04T07:14:09;1.50;;;1.40;;
19107;SDS011;9686;48.832;9.126;2023-06-04T07:16:34;2.77;;;1.43;;
19107;SDS011;9686;48.832;9.126;2023-06-04T07:19:00;3.07;;;1.60;;
19107;SDS011;9686;48.832;9.126;2023-06-04T07:21:27;2.57;;;1.70;;
19107;SDS011;9686;48.832;9.126;2023-06-04T07:23:52;2.07;;;1.50;;
19107;SDS011;9686;48.832;9.126;2023-06-04T07:26:18;2.50;;;1.33;;
19107;SDS011;9686;48.832;9.126;2023-06-04T07:28:43;2.60;;;1.70;;
19107;SDS011;9686;48.832;9.126;2023-06-04T07:31:09;1.87;;;1.67;;
19107;SDS011;9686;48.832;9.126;2023-06-04T07:33:35;1.93;;;1.70;;
19107;SDS011;9686;48.832;9.126;2023-06-04T07:36:07;1.70;;;1.57;;
19107;SDS011;9686;48.832;9.126;2023-06-04T07:38:34;4.87;;;1.60;;
19107;SDS011;9686;48.832;9.126;2023-06-04T07:40:59;2.27;;;1.67;;
19107;SDS011;9686;48.832;9.126;2023-06-04T07:43:24;1.63;;;1.53;;
19107;SDS011;9686;48.832;9.126;2023-06-04T07:45:50;2.67;;;1.87;;
19107;SDS011;9686;48.832;9.126;2023-06-04T07:48:15;1.90;;;1.70;;
19107;SDS011;9686;48.832;9.126;2023-06-04T07:50:40;3.53;;;2.20;;
19107;SDS011;9686;48.832;9.126;2023-06-04T07:53:05;3.07;;;1.83;;
19107;SDS011;9686;48.832;9.126;2023-06-04T07:55:31;2.07;;;1.83;;
19107;SDS011;9686;48.832;9.126;2023-06-04T07:57:57;2.07;;;1.87;;
19107;SDS011;9686;48.832;9.126;2023-06-04T08:00:22;2.00;;;1.80;;
19107;SDS011;9686;48.832;9.126;2023-06-04T08:02:47;2.00;;;1.60;;
19107;SDS011;9686;48.832;9.126;2023-06-04T08:05:13;1.87;;;1.67;;
19107;SDS011;9686;48.832;9.126;2023-06-04T08:07:39;2.53;;;2.10;;
19107;SDS011;9686;48.832;9.126;2023-06-04T08:10:05;3.23;;;1.90;;
19107;SDS011;9686;48.832;9.126;2023-06-04T08:12:31;3.10;;;1.70;;
19107;SDS011;9686;48.832;9.126;2023-06-04T08:14:56;2.07;;;1.50;;
19107;SDS011;9686;48.832;9.126;2023-06-04T08:17:22;2.60;;;2.07;;
19107;SDS011;9686;48.832;9.126;2023-06-04T08:19:48;2.20;;;1.80;;
19107;SDS011;9686;48.832;9.126;2023-06-04T08:22:13;3.10;;;1.80;;
19107;SDS011;9686;48.832;9.126;2023-06-04T08:24:38;2.10;;;1.70;;
19107;SDS011;9686;48.832;9.126;2023-06-04T08:27:04;1.70;;;1.60;;
19107;SDS011;9686;48.832;9.126;2023-06-04T08:29:29;1.50;;;1.40;;
19107;SDS011;9686;48.832;9.126;2023-06-04T08:31:55;2.40;;;1.60;;
19107;SDS011;9686;48.832;9.126;2023-06-04T08:34:20;2.53;;;1.50;;
19107;SDS011;9686;48.832;9.126;2023-06-04T08:36:45;1.70;;;1.60;;
19107;SDS011;9686;48.832;9.126;2023-06-04T08:39:11;2.03;;;1.60;;
19107;SDS011;9686;48.832;9.126;2023-06-04T08:41:42;2.70;;;1.40;;
19107;SDS011;9686;48.832;9.126;2023-06-04T08:44:09;2.30;;;1.50;;
19107;SDS011;9686;48.832;9.126;2023-06-04T08:46:38;2.03;;;1.83;;
19107;SDS011;9686;48.832;9.126;2023-06-04T08:49:05;1.57;;;1.47;;
19107;SDS011;9686;48.832;9.126;2023-06-04T08:51:32;1.50;;;1.37;;
19107;SDS011;9686;48.832;9.126;2023-06-04T08:54:00;2.47;;;1.63;;
19107;SDS011;9686;48.832;9.126;2023-06-04T08:56:25;2.93;;;2.00;;
19107;SDS011;9686;48.832;9.126;2023-06-04T08:58:54;2.17;;;1.90;;
19107;SDS011;9686;48.832;9.126;2023-06-04T09:01:24;2.00;;;1.70;;
19107;SDS011;9686;48.832;9.126;2023-06-04T09:03:50;1.70;;;1.60;;
19107;SDS011;9686;48.832;9.126;2023-06-04T09:06:16;1.80;;;1.70;;
19107;SDS011;9686;48.832;9.126;2023-06-04T09:08:42;2.60;;;1.63;;
19107;SDS011;9686;48.832;9.126;2023-06-04T09:11:10;1.70;;;1.50;;
19107;SDS011;9686;48.832;9.126;2023-06-04T09:13:38;2.10;;;1.80;;
19107;SDS011;9686;48.832;9.126;2023-06-04T09:16:05;2.43;;;1.50;;
19107;SDS011;9686;48.832;9.126;2023-06-04T09:18:31;2.57;;;1.47;;
19107;SDS011;9686;48.832;9.126;2023-06-04T09:21:06;2.23;;;1.77;;
19107;SDS011;9686;48.832;9.126;2023-06-04T09:23:48;2.00;;;1.27;;
19107;SDS011;9686;48.832;9.126;2023-06-04T09:26:13;1.77;;;1.60;;
19107;SDS011;9686;48.832;9.126;2023-06-04T09:28:39;2.90;;;1.60;;
19107;SDS011;9686;48.832;9.126;2023-06-04T09:31:17;2.60;;;1.60;;
19107;SDS011;9686;48.832;9.126;2023-06-04T09:33:45;3.17;;;1.90;;
19107;SDS011;9686;48.832;9.126;2023-06-04T09:36:12;1.90;;;1.60;;
19107;SDS011;9686;48.832;9.126;2023-06-04T09:38:38;2.33;;;1.70;;
19107;SDS011;9686;48.832;9.126;2023-06-04T09:41:03;1.80;;;1.60;;
19107;SDS011;9686;48.832;9.126;2023-06-04T09:43:30;2.03;;;1.53;;
19107;SDS011;9686;48.832;9.126;2023-06-04T09:46:07;2.13;;;1.40;;
19107;SDS011;9686;48.832;9.126;2023-06-04T09:48:36;2.20;;;1.80;;
19107;SDS011;9686;48.832;9.126;2023-06-04T09:51:06;1.83;;;1.70;;
19107;SDS011;9686;48.832;9.126;2023-06-04T09:53:35;2.40;;;1.60;;
19107;SDS011;9686;48.832;9.126;2023-06-04T09:56:02;2.77;;;2.00;;
19107;SDS011;9686;48.832;9.126;2023-06-04T09:58:29;1.80;;;1.63;;
19107;SDS011;9686;48.832;9.126;2023-06-04T10:00:56;2.23;;;1.60;;
19107;SDS011;9686;48.832;9.126;2023-06-04T10:03:26;2.97;;;1.90;;
19107;SDS011;9686;48.832;9.126;2023-06-04T10:05:56;2.37;;;1.50;;
19107;SDS011;9686;48.832;9.126;2023-06-04T10:08:22;3.33;;;2.00;;
19107;SDS011;9686;48.832;9.126;2023-06-04T10:10:51;2.27;;;1.90;;
19107;SDS011;9686;48.832;9.126;2023-06-04T10:13:19;2.77;;;1.80;;
19107;SDS011;9686;48.832;9.126;2023-06-04T10:15:45;2.43;;;1.90;;
19107;SDS011;9686;48.832;9.126;2023-06-04T10:18:11;4.10;;;2.10;;
19107;SDS011;9686;48.832;9.126;2023-06-04T10:20:39;2.47;;;2.03;;
19107;SDS011;9686;48.832;9.126;2023-06-04T10:23:05;4.33;;;2.13;;
19107;SDS011;9686;48.832;9.126;2023-06-04T10:25:32;2.37;;;1.80;;
19107;SDS011;9686;48.832;9.126;2023-06-04T10:28:00;2.63;;;1.93;;
19107;SDS011;9686;48.832;9.126;2023-06-04T10:30:26;2.50;;;1.80;;
19107;SDS011;9686;48.832;9.126;2023-06-04T10:32:52;2.30;;;1.80;;
19107;SDS011;9686;48.832;9.126;2023-06-04T10:35:28;2.20;;;1.77;;
19107;SDS011;9686;48.832;9.126;2023-06-04T10:38:10;2.70;;;1.70;;
19107;SDS011;9686;48.832;9.126;2023-06-04T10:40:36;2.57;;;1.77;;
19107;SDS011;9686;48.832;9.126;2023-06-04T10:43:05;2.20;;;2.00;;
19107;SDS011;9686;48.832;9.126;2023-06-04T10:45:32;2.40;;;2.00;;
19107;SDS011;9686;48.832;9.126;2023-06-04T10:48:01;2.30;;;2.10;;
19107;SDS011;9686;48.832;9.126;2023-06-04T10:50:31;2.53;;;2.33;;
19107;SDS011;9686;48.832;9.126;2023-06-04T10:52:58;2.80;;;2.07;;
19107;SDS011;9686;48.832;9.126;2023-06-04T10:55:24;3.10;;;1.80;;
19107;SDS011;9686;48.832;9.126;2023-06-04T10:57:54;2.77;;;1.83;;
19107;SDS011;9686;48.832;9.126;2023-06-04T11:00:20;2.70;;;2.40;;
19107;SDS011;9686;48.832;9.126;2023-06-04T11:02:54;2.10;;;1.90;;
19107;SDS011;9686;48.832;9.126;2023-06-04T11:05:32;2.40;;;2.20;;
19107;SDS011;9686;48.832;9.126;2023-06-04T11:08:26;3.17;;;2.40;;
19107;SDS011;9686;48.832;9.126;2023-06-04T11:10:53;3.20;;;2.40;;
19107;SDS011;9686;48.832;9.126;2023-06-04T11:13:22;3.40;;;1.90;;
19107;SDS011;9686;48.832;9.126;2023-06-04T11:15:51;2.20;;;1.83;;
19107;SDS011;9686;48.832;9.126;2023-06-04T11:18:20;2.43;;;1.97;;
19107;SDS011;9686;48.832;9.126;2023-06-04T11:20:47;3.03;;;2.17;;
19107;SDS011;9686;48.832;9.126;2023-06-04T11:23:15;2.60;;;2.10;;
19107;SDS011;9686;48.832;9.126;2023-06-04T11:25:41;2.20;;;1.80;;
19107;SDS011;9686;48.832;9.126;2023-06-04T11:28:16;2.93;;;2.00;;
19107;SDS011;9686;48.832;9.126;2023-06-04T11:30:56;2.40;;;2.13;;
19107;SDS011;9686;48.832;9.126;2023-06-04T11:33:21;3.57;;;2.27;;
19107;SDS011;9686;48.832;9.126;2023-06-04T11:35:47;2.83;;;2.50;;
19107;SDS011;9686;48.832;9.126;2023-06-04T11:38:12;2.40;;;2.13;;
19107;SDS011;9686;48.832;9.126;2023-06-04T11:40:37;2.50;;;2.30;;
19107;SDS011;9686;48.832;9.126;2023-06-04T11:43:03;2.80;;;2.10;;
19107;SDS011;9686;48.832;9.126;2023-06-04T11:45:28;2.42;;;2.15;;
19107;SDS011;9686;48.832;9.126;2023-06-04T11:47:55;2.55;;;2.10;;
19107;SDS011;9686;48.832;9.126;2023-06-04T11:50:29;2.95;;;2.60;;
19107;SDS011;9686;48.832;9.126;2023-06-04T11:52:54;3.30;;;2.17;;
19107;SDS011;9686;48.832;9.126;2023-06-04T11:55:20;4.40;;;2.60;;
19107;SDS011;9686;48.832;9.126;2023-06-04T11:57:46;6.88;;;2.35;;
19107;SDS011;9686;48.832;9.126;2023-06-04T12:00:14;2.42;;;2.22;;
19107;SDS011;9686;48.832;9.126;2023-06-04T12:02:48;3.38;;;2.50;;
19107;SDS011;9686;48.832;9.126;2023-06-04T12:05:18;2.78;;;2.58;;
19107;SDS011;9686;48.832;9.126;2023-06-04T12:07:44;2.28;;;2.10;;
19107;SDS011;9686;48.832;9.126;2023-06-04T12:10:10;2.28;;;2.10;;
19107;SDS011;9686;48.832;9.126;2023-06-04T12:12:37;2.70;;;2.40;;
19107;SDS011;9686;48.832;9.126;2023-06-04T12:15:02;2.90;;;2.60;;
19107;SDS011;9686;48.832;9.126;2023-06-04T12:17:30;2.30;;;2.15;;
19107;SDS011;9686;48.832;9.126;2023-06-04T12:19:56;2.60;;;2.40;;
19107;SDS011;9686;48.832;9.126;2023-06-04T12:22:23;1.85;;;1.75;;
19107;SDS011;9686;48.832;9.126;2023-06-04T12:24:55;2.47;;;2.25;;
19107;SDS011;9686;48.832;9.126;2023-06-04T12:27:22;2.28;;;2.00;;
19107;SDS011;9686;48.832;9.126;2023-06-04T12:30:00;2.30;;;2.10;;
19107;SDS011;9686;48.832;9.126;2023-06-04T12:32:30;2.28;;;2.00;;
19107;SDS011;9686;48.832;9.126;2023-06-04T12:34:56;2.22;;;1.75;;
19107;SDS011;9686;48.832;9.126;2023-06-04T12:37:22;3.15;;;2.42;;
19107;SDS011;9686;48.832;9.126;2023-06-04T12:39:50;3.08;;;2.00;;
19107;SDS011;9686;48.832;9.126;2023-06-04T12:42:15;2.20;;;2.00;;
19107;SDS011;9686;48.832;9.126;2023-06-04T12:44:41;4.50;;;2.40;;
19107;SDS011;9686;48.832;9.126;2023-06-04T12:47:07;2.30;;;2.10;;
19107;SDS011;9686;48.832;9.126;2023-06-04T12:49:33;1.73;;;1.60;;
19107;SDS011;9686;48.832;9.126;2023-06-04T12:51:58;8.80;;;2.38;;
19107;SDS011;9686;48.832;9.126;2023-06-04T12:54:24;2.67;;;2.13;;
19107;SDS011;9686;48.832;9.126;2023-06-04T12:56:49;2.63;;;2.30;;
19107;SDS011;9686;48.832;9.126;2023-06-04T12:59:15;3.00;;;2.10;;
19107;SDS011;9686;48.832;9.126;2023-06-04T13:01:40;2.42;;;1.98;;
19107;SDS011;9686;48.832;9.126;2023-06-04T13:04:06;2.60;;;2.13;;
19107;SDS011;9686;48.832;9.126;2023-06-04T13:06:33;2.35;;;2.15;;
19107;SDS011;9686;48.832;9.126;2023-06-04T13:09:00;2.03;;;1.87;;
19107;SDS011;9686;48.832;9.126;2023-06-04T13:11:26;1.97;;;1.67;;
19107;SDS011;9686;48.832;9.126;2023-06-04T13:13:51;2.30;;;2.00;;
19107;SDS011;9686;48.832;9.126;2023-06-04T13:16:16;2.70;;;2.20;;
19107;SDS011;9686;48.832;9.126;2023-06-04T13:18:42;2.30;;;1.77;;
19107;SDS011;9686;48.832;9.126;2023-06-04T13:21:07;3.50;;;2.13;;
19107;SDS011;9686;48.832;9.126;2023-06-04T13:23:32;4.67;;;2.30;;
19107;SDS011;9686;48.832;9.126;2023-06-04T13:25:57;2.10;;;1.90;;
19107;SDS011;9686;48.832;9.126;2023-06-04T13:28:23;2.27;;;1.90;;
19107;SDS011;9686;48.832;9.126;2023-06-04T13:30:48;2.50;;;1.97;;
19107;SDS011;9686;48.832;9.126;2023-06-04T13:33:13;2.45;;;2.10;;
19107;SDS011;9686;48.832;9.126;2023-06-04T13:35:39;2.35;;;1.92;;
19107;SDS011;9686;48.832;9.126;2023-06-04T13:38:04;2.28;;;2.08;;
19107;SDS011;9686;48.832;9.126;2023-06-04T13:40:31;2.88;;;2.58;;
19107;SDS011;9686;48.832;9.126;2023-06-04T13:42:59;2.47;;;2.20;;
19107;SDS011;9686;48.832;9.126;2023-06-04T13:45:24;2.95;;;2.20;;
19107;SDS011;9686;48.832;9.126;2023-06-04T13:47:49;2.83;;;2.07;;
19107;SDS011;9686;48.832;9.126;2023-06-04T13:50:15;3.80;;;2.23;;
19107;SDS011;9686;48.832;9.126;2023-06-04T13:52:40;3.23;;;2.27;;
19107;SDS011;9686;48.832;9.126;2023-06-04T13:55:06;2.83;;;2.30;;
19107;SDS011;9686;48.832;9.126;2023-06-04T13:57:31;2.90;;;2.17;;
19107;SDS011;9686;48.832;9.126;2023-06-04T13:59:57;2.80;;;2.53;;
19107;SDS011;9686;48.832;9.126;2023-06-04T14:02:22;2.27;;;2.07;;
19107;SDS011;9686;48.832;9.126;2023-06-04T14:04:49;2.90;;;2.33;;
19107;SDS011;9686;48.832;9.126;2023-06-04T14:07:15;2.70;;;2.37;;
19107;SDS011;9686;48.832;9.126;2023-06-04T14:09:41;2.57;;;2.37;;
19107;SDS011;9686;48.832;9.126;2023-06-04T14:12:07;2.90;;;2.60;;
19107;SDS011;9686;48.832;9.126;2023-06-04T14:14:33;2.80;;;2.37;;
19107;SDS011;9686;48.832;9.126;2023-06-04T14:17:04;2.70;;;2.30;;
19107;SDS011;9686;48.832;9.126;2023-06-04T14:19:31;3.67;;;2.27;;
19107;SDS011;9686;48.832;9.126;2023-06-04T14:21:57;2.53;;;2.17;;
19107;SDS011;9686;48.832;9.126;2023-06-04T14:24:23;3.20;;;2.33;;
19107;SDS011;9686;48.832;9.126;2023-06-04T14:26:48;2.80;;;2.33;;
19107;SDS011;9686;48.832;9.126;2023-06-04T14:29:13;2.37;;;2.10;;
19107;SDS011;9686;48.832;9.126;2023-06-04T14:31:39;2.30;;;2.10;;
19107;SDS011;9686;48.832;9.126;2023-06-04T14:34:04;2.70;;;2.30;;
19107;SDS011;9686;48.832;9.126;2023-06-04T14:36:31;2.23;;;1.90;;
19107;SDS011;9686;48.832;9.126;2023-06-04T14:38:57;2.00;;;1.70;;
19107;SDS011;9686;48.832;9.126;2023-06-04T14:41:22;3.13;;;2.17;;
19107;SDS011;9686;48.832;9.126;2023-06-04T14:43:47;2.10;;;1.73;;
19107;SDS011;9686;48.832;9.126;2023-06-04T14:46:13;2.17;;;1.97;;
19107;SDS011;9686;48.832;9.126;2023-06-04T14:48:38;4.23;;;2.00;;
19107;SDS011;9686;48.832;9.126;2023-06-04T14:51:03;2.77;;;2.10;;
19107;SDS011;9686;48.832;9.126;2023-06-04T14:53:29;2.60;;;2.10;;
19107;SDS011;9686;48.832;9.126;2023-06-04T14:55:54;2.30;;;1.67;;
19107;SDS011;9686;48.832;9.126;2023-06-04T14:58:20;2.20;;;2.00;;